Time;durP1;ratioP1;P1;durP2;ratioP2;P2;SDS_P1;SDS_P2;PMS_P1;PMS_P2;Temp;Humidity;BMP_temperature;BMP_pressure;BME280_temperature;BME280_humidity;BME280_pressure;Samples;Min_cycle;Max_cycle;Signal;HPM_P1;HPM_P2
2023/06/18 00:01:55;;;;;;;6.40;5.68;;;23.20;70.50;;;;;;5057848;28;20025;-83
2023/06/18 00:04:20;;;;;;;6.32;5.72;;;23.20;70.80;;;;;;5059310;28;20074;-83
2023/06/18 00:06:46;;;;;;;7.28;6.10;;;23.20;70.90;;;;;;5060722;28;20081;-82
2023/06/18 00:09:12;;;;;;;7.47;6.15;;;23.20;71.00;;;;;;5078875;28;20432;-83
2023/06/18 00:11:37;;;;;;;9.20;6.82;;;23.20;71.10;;;;;;5086193;28;20076;-83
2023/06/18 00:14:03;;;;;;;7.35;5.88;;;23.20;71.30;;;;;;5080799;28;20028;-82
2023/06/18 00:16:28;;;;;;;7.57;6.03;;;23.10;71.90;;;;;;5081337;28;20107;-82
2023/06/18 00:18:54;;;;;;;6.95;5.72;;;23.10;71.30;;;;;;5097333;28;20017;-82
2023/06/18 00:21:20;;;;;;;6.15;5.55;;;23.10;71.40;;;;;;5075928;28;20032;-82
2023/06/18 00:23:45;;;;;;;6.15;5.30;;;23.00;71.30;;;;;;5074902;28;20084;-82
2023/06/18 00:26:11;;;;;;;8.50;6.00;;;23.00;71.30;;;;;;5081869;28;20504;-83
2023/06/18 00:28:39;;;;;;;7.35;6.07;;;23.00;71.30;;;;;;5040819;28;20483;-83
2023/06/18 00:31:05;;;;;;;7.38;5.30;;;23.00;71.30;;;;;;5056912;28;20473;-83
2023/06/18 00:33:33;;;;;;;8.65;5.75;;;23.00;71.30;;;;;;5040488;28;20028;-83
2023/06/18 00:35:59;;;;;;;5.53;5.00;;;23.00;71.30;;;;;;5056479;28;20085;-82
2023/06/18 00:38:27;;;;;;;7.32;5.43;;;23.00;71.30;;;;;;5039813;28;20032;-83
2023/06/18 00:40:52;;;;;;;6.00;5.25;;;22.90;71.20;;;;;;5056461;28;20075;-82
2023/06/18 00:43:21;;;;;;;8.52;6.32;;;23.00;71.20;;;;;;5056391;28;20029;-82
2023/06/18 00:45:48;;;;;;;7.85;5.55;;;22.90;71.20;;;;;;5056945;28;20668;-82
2023/06/18 00:48:14;;;;;;;6.03;5.45;;;22.90;71.20;;;;;;5056591;28;20025;-83
2023/06/18 00:50:41;;;;;;;6.70;5.25;;;22.90;71.20;;;;;;5074275;28;20100;-83
2023/06/18 00:53:13;;;;;;;6.70;6.00;;;22.90;71.20;;;;;;5056019;28;20580;-83
2023/06/18 00:55:39;;;;;;;7.22;5.63;;;22.90;71.20;;;;;;5056370;28;20027;-83
2023/06/18 00:58:05;;;;;;;5.57;5.07;;;22.90;71.20;;;;;;5073888;28;20033;-83
2023/06/18 01:00:34;;;;;;;6.82;5.43;;;22.80;71.10;;;;;;5056346;28;20029;-83
2023/06/18 01:03:20;;;;;;;5.63;5.00;;;22.80;71.10;;;;;;5073792;28;20119;-83
2023/06/18 01:05:52;;;;;;;8.00;5.40;;;22.80;71.10;;;;;;5055971;28;20066;-82
2023/06/18 01:08:23;;;;;;;5.18;4.63;;;22.80;71.20;;;;;;5073953;28;20033;-83
2023/06/18 01:10:57;;;;;;;6.63;5.85;;;22.80;71.20;;;;;;5073731;28;20381;-82
2023/06/18 01:13:25;;;;;;;6.57;5.32;;;22.80;71.20;;;;;;5073526;28;20052;-83
2023/06/18 01:15:51;;;;;;;7.88;5.22;;;22.80;71.20;;;;;;5056186;28;20029;-82
2023/06/18 01:18:17;;;;;;;5.95;5.07;;;22.80;71.30;;;;;;5056291;28;20082;-83
2023/06/18 01:20:45;;;;;;;6.75;5.50;;;22.70;71.40;;;;;;5056157;28;20028;-83
2023/06/18 01:23:27;;;;;;;6.95;6.07;;;22.70;71.50;;;;;;5055573;28;20085;-83
2023/06/18 01:25:57;;;;;;;6.57;5.47;;;22.70;71.50;;;;;;5055750;28;20381;-82
2023/06/18 01:28:24;;;;;;;7.03;5.10;;;22.70;71.60;;;;;;5055682;28;20028;-83
2023/06/18 01:30:53;;;;;;;6.32;5.57;;;22.70;71.60;;;;;;5039313;28;20119;-83
2023/06/18 01:33:21;;;;;;;6.60;5.50;;;22.60;71.70;;;;;;5073665;28;20025;-83
2023/06/18 01:35:47;;;;;;;8.02;6.00;;;22.60;71.80;;;;;;5055941;28;20036;-83
2023/06/18 01:38:23;;;;;;;8.88;6.03;;;22.50;72.00;;;;;;5073785;28;20043;-82
2023/06/18 01:41:21;;;;;;;7.75;5.68;;;22.50;72.30;;;;;;5055772;28;20044;-83
2023/06/18 01:43:57;;;;;;;7.07;5.78;;;22.40;72.50;;;;;;5072953;28;20025;-83
2023/06/18 01:46:28;;;;;;;6.75;5.53;;;22.50;72.60;;;;;;5055357;28;20025;-83
2023/06/18 01:48:56;;;;;;;;;;;22.40;72.70;;;;;;5055905;28;20048;-83
2023/06/18 01:51:23;;;;;;;7.95;5.68;;;22.40;72.60;;;;;;5055119;28;19904;-83
2023/06/18 01:53:53;;;;;;;8.48;5.82;;;22.30;72.80;;;;;;5055356;28;20035;-83
2023/06/18 01:56:21;;;;;;;8.77;6.07;;;22.30;72.90;;;;;;5055511;28;20066;-83
2023/06/18 01:58:46;;;;;;;7.25;5.80;;;22.30;73.00;;;;;;5055399;28;20028;-83
2023/06/18 02:01:12;;;;;;;6.80;5.90;;;22.30;73.10;;;;;;5055436;28;20432;-83
2023/06/18 02:03:39;;;;;;;6.72;6.03;;;22.20;73.20;;;;;;5055256;28;20020;-83
2023/06/18 02:06:06;;;;;;;6.57;5.85;;;22.20;73.30;;;;;;5055290;28;20441;-83
2023/06/18 02:08:32;;;;;;;7.72;5.95;;;22.20;73.40;;;;;;5039064;28;20032;-83
2023/06/18 02:10:58;;;;;;;7.22;5.85;;;22.20;73.60;;;;;;5055538;28;20055;-83
2023/06/18 02:13:24;;;;;;;6.75;6.00;;;22.10;73.70;;;;;;5077718;28;20339;-83
2023/06/18 02:15:49;;;;;;;6.75;6.05;;;22.10;73.70;;;;;;5096966;28;20072;-82
2023/06/18 02:18:15;;;;;;;7.05;5.95;;;22.10;73.80;;;;;;5082849;28;20208;-82
2023/06/18 02:20:41;;;;;;;6.80;6.10;;;22.10;73.90;;;;;;5101219;28;20036;-82
2023/06/18 02:23:07;;;;;;;10.18;6.53;;;22.00;74.00;;;;;;5083785;28;20026;-82
2023/06/18 02:25:33;;;;;;;8.13;6.53;;;22.00;74.10;;;;;;5083479;28;20088;-82
2023/06/18 02:28:00;;;;;;;6.47;5.40;;;22.00;74.40;;;;;;5062044;28;20114;-82
2023/06/18 02:30:29;;;;;;;6.15;5.57;;;21.90;74.40;;;;;;5077222;28;20024;-83
2023/06/18 02:32:59;;;;;;;6.47;5.88;;;21.90;74.50;;;;;;5059300;28;20052;-82
2023/06/18 02:35:26;;;;;;;6.18;5.57;;;21.90;74.60;;;;;;5042803;28;20024;-83
2023/06/18 02:37:52;;;;;;;8.38;5.78;;;21.80;74.60;;;;;;5076585;28;20029;-83
2023/06/18 02:40:17;;;;;;;7.75;5.88;;;21.80;74.90;;;;;;5075022;28;20039;-82
2023/06/18 02:42:50;;;;;;;6.47;5.57;;;21.80;74.90;;;;;;5042164;28;20063;-83
2023/06/18 02:45:17;;;;;;;7.28;6.13;;;21.80;74.90;;;;;;5058511;28;20028;-82
2023/06/18 02:47:44;;;;;;;7.65;5.78;;;21.70;75.00;;;;;;5058709;28;20429;-83
2023/06/18 02:50:11;;;;;;;6.50;5.80;;;21.70;75.20;;;;;;5058344;28;20025;-82
2023/06/18 02:52:36;;;;;;;7.07;6.35;;;21.60;75.20;;;;;;5076546;28;20023;-82
2023/06/18 02:55:02;;;;;;;8.85;5.75;;;21.60;75.90;;;;;;5041710;28;20029;-82
2023/06/18 02:57:28;;;;;;;6.55;5.88;;;21.60;75.40;;;;;;5058481;28;20055;-83
2023/06/18 02:59:53;;;;;;;6.70;6.05;;;21.60;75.40;;;;;;5058399;28;20055;-82
2023/06/18 03:02:19;;;;;;;7.60;6.80;;;21.50;75.40;;;;;;5058327;28;20028;-83
2023/06/18 03:04:45;;;;;;;8.05;6.82;;;21.50;75.50;;;;;;5041770;28;20029;-82
2023/06/18 03:07:11;;;;;;;8.75;6.57;;;21.40;75.60;;;;;;5058233;28;20362;-82
2023/06/18 03:09:36;;;;;;;10.68;7.30;;;21.40;75.80;;;;;;5075130;28;20375;-83
2023/06/18 03:12:02;;;;;;;9.23;6.85;;;21.40;75.80;;;;;;5040785;28;20102;-81
2023/06/18 03:14:28;;;;;;;7.65;6.80;;;21.40;75.90;;;;;;5076025;28;20078;-82
2023/06/18 03:16:56;;;;;;;8.40;6.60;;;21.40;75.90;;;;;;5058199;28;20086;-83
2023/06/18 03:19:22;;;;;;;7.25;6.38;;;21.30;76.00;;;;;;5041708;28;20197;-83
2023/06/18 03:21:48;;;;;;;7.55;6.75;;;21.30;76.10;;;;;;5075080;28;20470;-83
2023/06/18 03:24:14;;;;;;;8.13;6.22;;;21.30;76.20;;;;;;5041162;28;20124;-82
2023/06/18 03:26:41;;;;;;;6.75;6.05;;;21.30;76.20;;;;;;5058124;28;20531;-82
2023/06/18 03:29:07;;;;;;;8.43;7.10;;;21.20;76.20;;;;;;5039682;28;20020;-82
2023/06/18 03:31:33;;;;;;;7.50;6.80;;;21.20;76.30;;;;;;5057518;28;20381;-82
2023/06/18 03:34:02;;;;;;;10.30;6.72;;;21.20;76.40;;;;;;5074696;28;20481;-82
2023/06/18 03:36:29;;;;;;;7.60;6.72;;;21.20;76.40;;;;;;5041316;28;20032;-82
2023/06/18 03:38:55;;;;;;;8.38;6.78;;;21.20;76.50;;;;;;5075745;28;20028;-82
2023/06/18 03:41:21;;;;;;;8.27;6.90;;;21.10;76.60;;;;;;5075313;28;20021;-83
2023/06/18 03:43:46;;;;;;;7.53;6.68;;;21.10;76.70;;;;;;5057455;28;20058;-82
2023/06/18 03:46:12;;;;;;;7.78;6.95;;;21.10;76.80;;;;;;5057645;28;20109;-82
2023/06/18 03:48:41;;;;;;;9.27;6.95;;;21.10;77.50;;;;;;5073882;28;20035;-82
2023/06/18 03:51:07;;;;;;;8.27;6.60;;;21.10;76.90;;;;;;5057304;28;20121;-82
2023/06/18 03:53:36;;;;;;;8.07;6.35;;;21.10;77.00;;;;;;5057349;28;20477;-82
2023/06/18 03:56:12;;;;;;;8.15;6.78;;;21.10;77.20;;;;;;5057922;28;20021;-82
2023/06/18 03:58:37;;;;;;;9.07;7.22;;;21.00;77.30;;;;;;5075629;28;20032;-82
2023/06/18 04:01:03;;;;;;;7.45;6.60;;;21.10;77.30;;;;;;5041333;28;20028;-82
2023/06/18 04:03:29;;;;;;;9.90;7.82;;;21.00;77.40;;;;;;5057575;28;20111;-82
2023/06/18 04:05:55;;;;;;;9.55;7.20;;;21.00;77.50;;;;;;5057277;28;20031;-83
2023/06/18 04:08:20;;;;;;;8.63;7.03;;;21.00;77.70;;;;;;5074830;28;20047;-82
2023/06/18 04:10:47;;;;;;;9.43;7.45;;;21.00;77.70;;;;;;5057691;28;20032;-82
2023/06/18 04:13:19;;;;;;;7.90;6.97;;;21.00;77.70;;;;;;5046800;28;20076;-82
2023/06/18 04:15:45;;;;;;;8.35;7.40;;;21.00;78.30;;;;;;5082670;28;20036;-82
2023/06/18 04:18:11;;;;;;;8.00;7.20;;;21.00;77.90;;;;;;5082006;28;20034;-82
2023/06/18 04:20:37;;;;;;;9.80;7.88;;;21.00;77.90;;;;;;5098872;28;20008;-82
2023/06/18 04:23:02;;;;;;;8.45;7.55;;;20.90;78.10;;;;;;5081792;28;20084;-82
2023/06/18 04:25:28;;;;;;;8.13;7.28;;;20.90;78.20;;;;;;5092971;28;20024;-82
2023/06/18 04:27:55;;;;;;;7.93;7.13;;;20.90;78.20;;;;;;5041561;28;20033;-83
2023/06/18 04:30:21;;;;;;;8.95;8.05;;;20.90;78.20;;;;;;5041003;28;20059;-82
2023/06/18 04:32:46;;;;;;;9.27;7.78;;;20.90;78.30;;;;;;5075368;28;20029;-82
2023/06/18 04:35:12;;;;;;;8.35;7.53;;;20.90;78.20;;;;;;5056486;28;20025;-82
2023/06/18 04:37:38;;;;;;;9.50;7.90;;;20.90;78.40;;;;;;5056359;28;20112;-82
2023/06/18 04:40:05;;;;;;;11.27;8.50;;;20.90;78.40;;;;;;5056449;28;20028;-82
2023/06/18 04:42:31;;;;;;;10.27;7.40;;;20.90;78.40;;;;;;5055887;28;20127;-83
2023/06/18 04:44:57;;;;;;;8.05;7.18;;;20.90;78.40;;;;;;5056650;28;20385;-83
2023/06/18 04:47:25;;;;;;;9.95;7.53;;;21.00;78.30;;;;;;5039455;28;20029;-82
2023/06/18 04:49:51;;;;;;;8.63;7.40;;;21.00;78.20;;;;;;5056000;28;20119;-83
2023/06/18 04:52:17;;;;;;;9.85;8.43;;;21.00;78.30;;;;;;5056119;28;20119;-83
2023/06/18 04:54:42;;;;;;;8.63;7.80;;;21.00;78.30;;;;;;5074187;28;20104;-83
2023/06/18 04:57:09;;;;;;;9.43;7.80;;;21.00;78.40;;;;;;5039564;28;20089;-83
2023/06/18 04:59:36;;;;;;;8.48;7.55;;;21.10;78.40;;;;;;5039523;28;20059;-83
2023/06/18 05:02:03;;;;;;;8.75;7.28;;;21.00;78.40;;;;;;5073698;28;20454;-83
2023/06/18 05:04:29;;;;;;;9.85;7.03;;;21.10;78.40;;;;;;5039292;28;20478;-83
2023/06/18 05:06:55;;;;;;;8.55;7.30;;;21.20;78.40;;;;;;5072751;28;20040;-83
2023/06/18 05:09:22;;;;;;;8.13;7.15;;;21.20;78.40;;;;;;5073722;28;20024;-83
2023/06/18 05:11:47;;;;;;;9.60;7.95;;;21.30;78.40;;;;;;5039257;28;20078;-83
2023/06/18 05:14:13;;;;;;;8.73;7.68;;;21.30;78.40;;;;;;5055933;28;20020;-83
2023/06/18 05:16:39;;;;;;;8.63;7.32;;;21.30;78.30;;;;;;5072351;28;20035;-83
2023/06/18 05:19:04;;;;;;;9.32;7.75;;;21.40;78.20;;;;;;5072400;28;20043;-83
2023/06/18 05:21:30;;;;;;;9.02;7.55;;;21.40;78.20;;;;;;5055550;28;20028;-83
2023/06/18 05:23:56;;;;;;;10.98;8.18;;;21.40;78.10;;;;;;5056178;28;20033;-83
2023/06/18 05:26:22;;;;;;;9.05;7.85;;;21.50;78.10;;;;;;5055727;28;20385;-82
2023/06/18 05:28:48;;;;;;;9.30;7.50;;;21.50;78.10;;;;;;5039035;28;20040;-83
2023/06/18 05:31:16;;;;;;;12.13;7.97;;;21.50;78.20;;;;;;5038950;28;20024;-83
2023/06/18 05:33:42;;;;;;;9.18;7.35;;;21.60;78.30;;;;;;5055880;28;20033;-83
2023/06/18 05:36:10;;;;;;;8.90;7.93;;;21.50;78.20;;;;;;5038402;28;20044;-83
2023/06/18 05:38:36;;;;;;;9.25;8.25;;;21.60;78.30;;;;;;5038683;28;20119;-82
2023/06/18 05:41:02;;;;;;;9.82;8.77;;;21.60;78.30;;;;;;5038926;28;20055;-83
2023/06/18 05:43:31;;;;;;;9.02;8.13;;;21.60;78.30;;;;;;5055484;28;20032;-83
2023/06/18 05:45:57;;;;;;;9.07;8.18;;;21.60;78.20;;;;;;5038794;28;20055;-83
2023/06/18 05:48:23;;;;;;;8.48;7.60;;;21.60;78.20;;;;;;5055616;28;20417;-83
2023/06/18 05:50:49;;;;;;;10.45;9.30;;;21.70;78.30;;;;;;5055542;28;20116;-83
2023/06/18 05:53:14;;;;;;;12.90;9.13;;;21.80;78.30;;;;;;5054867;28;20024;-83
2023/06/18 05:55:40;;;;;;;10.40;8.57;;;21.80;78.20;;;;;;5073378;28;20388;-83
2023/06/18 05:58:06;;;;;;;10.25;8.32;;;21.80;78.20;;;;;;5055716;28;20465;-83
2023/06/18 06:00:35;;;;;;;10.15;8.27;;;21.90;78.20;;;;;;5055928;28;20024;-83
2023/06/18 06:03:00;;;;;;;11.35;8.80;;;21.90;78.20;;;;;;5055865;28;20034;-83
2023/06/18 06:05:26;;;;;;;9.13;8.23;;;21.90;78.10;;;;;;5073326;28;20033;-83
2023/06/18 06:07:52;;;;;;;8.57;7.78;;;22.00;78.20;;;;;;5074023;28;20088;-83
2023/06/18 06:10:22;;;;;;;9.75;8.75;;;22.00;78.20;;;;;;5039869;28;20040;-82
2023/06/18 06:12:48;;;;;;;;;;;22.10;78.30;;;;;;5052831;28;20112;-83
2023/06/18 06:15:16;;;;;;;9.38;8.23;;;22.10;78.10;;;;;;5113334;28;19923;-83
2023/06/18 06:17:41;;;;;;;10.73;8.48;;;22.10;78.00;;;;;;5079329;28;20032;-82
2023/06/18 06:20:07;;;;;;;10.15;9.10;;;22.20;78.00;;;;;;5079526;28;20085;-83
2023/06/18 06:22:33;;;;;;;9.70;8.73;;;22.20;77.80;;;;;;5079365;28;20013;-82
2023/06/18 06:24:59;;;;;;;10.60;9.50;;;22.30;77.80;;;;;;5067305;28;20029;-83
2023/06/18 06:27:24;;;;;;;9.13;8.23;;;22.30;77.60;;;;;;5055711;28;20036;-82
2023/06/18 06:29:50;;;;;;;9.85;8.13;;;22.40;77.70;;;;;;5073252;28;20039;-83
2023/06/18 06:32:15;;;;;;;10.07;9.07;;;22.40;77.60;;;;;;5055200;28;20455;-83
2023/06/18 06:34:41;;;;;;;10.35;8.85;;;22.40;77.40;;;;;;5055432;28;20029;-83
2023/06/18 06:37:09;;;;;;;11.73;9.93;;;22.50;77.20;;;;;;5071888;28;20040;-83
2023/06/18 06:39:35;;;;;;;11.77;9.30;;;22.50;77.20;;;;;;5072905;28;20032;-83
2023/06/18 06:42:02;;;;;;;10.45;9.43;;;22.60;77.00;;;;;;5054746;28;20025;-83
2023/06/18 06:44:32;;;;;;;10.82;9.48;;;22.70;76.90;;;;;;5054818;28;20043;-82
2023/06/18 06:46:58;;;;;;;13.38;9.48;;;22.70;76.80;;;;;;5039003;28;20036;-83
2023/06/18 06:49:23;;;;;;;10.98;9.27;;;22.80;76.60;;;;;;5071752;28;20095;-83
2023/06/18 06:51:53;;;;;;;11.10;8.73;;;22.90;76.30;;;;;;5072495;28;20036;-83
2023/06/18 06:54:18;;;;;;;10.18;9.10;;;22.90;76.20;;;;;;5072900;28;20036;-83
2023/06/18 06:56:44;;;;;;;9.88;8.55;;;23.00;76.00;;;;;;5054677;28;20103;-83
2023/06/18 06:59:10;;;;;;;10.88;8.63;;;23.10;75.90;;;;;;5054763;28;20064;-83
2023/06/18 07:01:35;;;;;;;11.23;8.98;;;23.20;75.80;;;;;;5054744;28;20029;-83
2023/06/18 07:04:01;;;;;;;9.27;8.38;;;23.30;75.40;;;;;;5072750;28;20123;-83
2023/06/18 07:06:26;;;;;;;9.70;8.80;;;23.30;75.30;;;;;;5058250;28;20432;-83
2023/06/18 07:08:53;;;;;;;11.63;9.50;;;23.40;75.20;;;;;;5058083;28;20032;-83
2023/06/18 07:11:18;;;;;;;10.15;9.15;;;23.40;74.90;;;;;;5058800;28;20329;-83
2023/06/18 07:13:44;;;;;;;10.25;8.93;;;23.50;74.80;;;;;;5074697;28;20140;-83
2023/06/18 07:16:10;;;;;;;9.70;8.70;;;23.50;74.70;;;;;;5058406;28;20496;-83
2023/06/18 07:18:35;;;;;;;8.82;7.93;;;23.60;74.60;;;;;;5058288;28;20044;-83
2023/06/18 07:21:01;;;;;;;9.02;8.13;;;23.70;74.50;;;;;;5058020;28;20466;-83
2023/06/18 07:23:27;;;;;;;9.63;8.35;;;23.70;74.30;;;;;;5058205;28;20028;-84
2023/06/18 07:25:52;;;;;;;8.02;6.95;;;23.80;74.30;;;;;;5041081;28;20028;-83
2023/06/18 07:28:18;;;;;;;8.70;7.80;;;23.90;74.30;;;;;;5075897;28;20112;-84
2023/06/18 07:30:43;;;;;;;8.48;7.55;;;23.90;74.20;;;;;;5075642;28;20028;-83
2023/06/18 07:33:09;;;;;;;9.45;6.97;;;24.00;74.00;;;;;;5057664;28;20082;-83
2023/06/18 07:35:35;;;;;;;8.60;7.28;;;24.10;73.90;;;;;;5040838;28;20450;-83
2023/06/18 07:38:00;;;;;;;8.52;7.13;;;24.20;73.60;;;;;;5075036;28;20037;-83
2023/06/18 07:40:28;;;;;;;8.70;7.45;;;24.30;73.40;;;;;;5041290;28;20028;-83
2023/06/18 07:42:53;;;;;;;7.60;6.57;;;24.30;73.20;;;;;;5057625;28;20032;-83
2023/06/18 07:45:19;;;;;;;7.90;7.20;;;24.40;73.20;;;;;;5040660;28;20029;-83
2023/06/18 07:47:45;;;;;;;7.90;7.10;;;24.40;73.20;;;;;;5040767;28;20042;-83
2023/06/18 07:50:11;;;;;;;9.82;7.60;;;24.50;73.10;;;;;;5057389;28;20036;-83
2023/06/18 07:52:36;;;;;;;9.27;7.18;;;24.50;73.20;;;;;;5075163;28;20036;-82
2023/06/18 07:55:02;;;;;;;7.55;6.75;;;24.60;73.10;;;;;;5057603;28;20032;-83
2023/06/18 07:57:28;;;;;;;6.80;6.10;;;24.60;73.10;;;;;;5040701;28;20032;-83
2023/06/18 07:59:53;;;;;;;7.30;6.38;;;24.70;73.10;;;;;;5074332;28;20258;-83
2023/06/18 08:02:19;;;;;;;8.30;6.85;;;24.70;72.80;;;;;;5057999;28;20033;-83
2023/06/18 08:04:45;;;;;;;7.10;6.25;;;24.80;72.90;;;;;;5059218;28;20028;-83
2023/06/18 08:07:11;;;;;;;9.10;6.28;;;24.80;72.70;;;;;;5059579;28;20020;-83
2023/06/18 08:09:36;;;;;;;7.47;6.63;;;24.90;72.50;;;;;;5077885;28;20021;-83
2023/06/18 08:12:02;;;;;;;7.72;6.90;;;24.90;72.10;;;;;;5061640;28;20115;-83
2023/06/18 08:14:31;;;;;;;7.43;6.40;;;24.90;71.60;;;;;;5071436;28;20084;-83
2023/06/18 08:16:57;;;;;;;7.35;6.65;;;24.90;71.50;;;;;;5079113;28;20032;-83
2023/06/18 08:19:22;;;;;;;8.38;6.38;;;24.90;71.80;;;;;;5062003;28;20021;-83
2023/06/18 08:21:49;;;;;;;7.32;6.60;;;24.90;71.80;;;;;;5060363;28;20029;-83
2023/06/18 08:24:17;;;;;;;6.65;5.95;;;24.90;71.60;;;;;;5074484;28;20020;-83
2023/06/18 08:26:43;;;;;;;7.35;6.30;;;24.90;71.60;;;;;;5058013;28;20036;-83
2023/06/18 08:29:09;;;;;;;7.93;7.05;;;24.90;72.20;;;;;;5066162;28;20036;-83
2023/06/18 08:31:35;;;;;;;7.75;6.55;;;25.00;71.60;;;;;;5057038;28;20028;-83
2023/06/18 08:34:01;;;;;;;7.07;6.38;;;25.00;71.50;;;;;;5057093;28;20037;-83
2023/06/18 08:36:27;;;;;;;8.32;6.70;;;25.00;71.60;;;;;;5040296;28;20028;-83
2023/06/18 08:38:54;;;;;;;7.95;6.55;;;25.00;71.60;;;;;;5040248;28;20117;-83
2023/06/18 08:41:20;;;;;;;6.78;6.18;;;25.10;71.40;;;;;;5074421;28;20021;-83
2023/06/18 08:43:49;;;;;;;7.05;5.97;;;25.10;71.20;;;;;;5056086;28;20546;-83
2023/06/18 08:46:16;;;;;;;7.85;6.10;;;25.10;71.40;;;;;;5074516;28;20024;-83
2023/06/18 08:48:57;;;;;;;6.80;6.10;;;25.20;71.60;;;;;;5039612;28;20471;-84
2023/06/18 08:51:23;;;;;;;8.18;6.80;;;25.20;71.60;;;;;;5056763;28;20458;-84
2023/06/18 08:54:11;;;;;;;7.60;6.38;;;25.30;71.40;;;;;;5055764;28;20388;-83
2023/06/18 08:56:42;;;;;;;7.65;6.20;;;25.30;71.10;;;;;;5073809;28;20024;-84
2023/06/18 08:59:10;;;;;;;6.10;5.60;;;25.40;70.80;;;;;;5056386;28;20637;-84
2023/06/18 09:01:37;;;;;;;6.82;5.68;;;25.50;70.40;;;;;;5056790;28;20458;-84
2023/06/18 09:04:03;;;;;;;6.45;5.78;;;25.50;69.90;;;;;;5039372;28;20104;-83
2023/06/18 09:06:29;;;;;;;6.07;5.50;;;25.60;69.60;;;;;;5039315;28;20040;-83
2023/06/18 09:08:57;;;;;;;6.47;5.63;;;25.70;69.10;;;;;;5073770;28;20085;-83
2023/06/18 09:11:23;;;;;;;5.80;5.20;;;25.70;68.80;;;;;;5039814;28;20024;-84
2023/06/18 09:13:49;;;;;;;7.20;6.25;;;25.80;68.40;;;;;;5073071;28;20535;-83
2023/06/18 09:16:15;;;;;;;6.20;5.60;;;25.90;67.90;;;;;;5055522;28;20186;-84
2023/06/18 09:18:40;;;;;;;6.45;5.85;;;25.90;67.10;;;;;;5073639;28;20028;-83
2023/06/18 09:21:07;;;;;;;8.80;6.22;;;26.00;66.70;;;;;;5055385;28;20378;-83
2023/06/18 09:23:33;;;;;;;7.95;5.60;;;26.00;66.00;;;;;;5073552;28;20029;-83
2023/06/18 09:26:00;;;;;;;5.82;5.30;;;26.10;65.40;;;;;;5073195;28;20028;-83
2023/06/18 09:28:27;;;;;;;5.50;5.00;;;26.20;64.80;;;;;;5073255;28;20462;-82
2023/06/18 09:31:02;;;;;;;5.65;5.05;;;26.30;64.70;;;;;;5055587;28;20440;-82
2023/06/18 09:33:39;;;;;;;5.40;4.90;;;26.40;64.60;;;;;;5039038;28;20116;-83
2023/06/18 09:36:08;;;;;;;4.78;4.32;;;26.40;63.90;;;;;;5038834;28;20024;-83
2023/06/18 09:38:35;;;;;;;6.18;4.45;;;26.50;64.00;;;;;;5073656;28;20079;-82
2023/06/18 09:41:02;;;;;;;5.32;4.80;;;26.50;64.00;;;;;;5054914;28;20043;-82
2023/06/18 09:43:50;;;;;;;5.15;4.65;;;26.60;63.80;;;;;;5055999;28;20434;-82
2023/06/18 09:46:18;;;;;;;4.90;4.50;;;26.70;63.40;;;;;;5055246;28;20023;-82
2023/06/18 09:48:45;;;;;;;6.28;5.68;;;26.70;63.20;;;;;;5055284;28;20032;-83
2023/06/18 09:51:22;;;;;;;5.03;4.63;;;26.80;62.30;;;;;;5072929;28;20539;-83
2023/06/18 09:53:55;;;;;;;5.25;4.75;;;26.80;61.60;;;;;;5055272;28;20051;-83
2023/06/18 09:56:21;;;;;;;5.13;4.63;;;26.90;61.10;;;;;;5055420;28;20020;-83
2023/06/18 09:58:51;;;;;;;6.45;5.25;;;26.90;61.00;;;;;;5038697;28;20316;-83
2023/06/18 10:01:18;;;;;;;;;;;26.90;60.70;;;;;;5055697;28;20078;-83
2023/06/18 10:03:44;;;;;;;6.63;5.57;;;26.90;60.80;;;;;;5055131;28;20003;-83
2023/06/18 10:06:21;;;;;;;7.68;4.82;;;26.90;61.40;;;;;;5073296;28;20024;-83
2023/06/18 10:08:59;;;;;;;6.40;5.25;;;26.90;62.10;;;;;;5073119;28;20021;-83
2023/06/18 10:11:26;;;;;;;5.63;5.00;;;26.90;63.50;;;;;;5055936;28;20115;-82
2023/06/18 10:13:57;;;;;;;5.45;4.75;;;26.90;63.30;;;;;;5055297;28;20515;-83
2023/06/18 10:16:27;;;;;;;5.47;4.68;;;26.90;63.50;;;;;;5055744;28;20405;-83
2023/06/18 10:19:16;;;;;;;5.70;5.13;;;26.90;64.30;;;;;;5074172;28;20043;-83
2023/06/18 10:21:51;;;;;;;5.15;4.65;;;26.90;65.30;;;;;;5048342;28;20161;-83
2023/06/18 10:24:29;;;;;;;6.63;5.57;;;26.90;65.60;;;;;;5065728;28;20007;-83
2023/06/18 10:26:56;;;;;;;5.53;5.03;;;26.80;65.60;;;;;;5079438;28;20047;-83
2023/06/18 10:29:22;;;;;;;5.65;4.80;;;26.90;65.60;;;;;;5096419;28;20040;-83
2023/06/18 10:31:49;;;;;;;5.72;4.60;;;26.90;65.70;;;;;;5062558;28;20072;-83
2023/06/18 10:34:15;;;;;;;5.10;4.60;;;26.90;66.10;;;;;;5078570;28;20024;-83
2023/06/18 10:36:41;;;;;;;4.97;4.57;;;26.80;66.30;;;;;;5061061;28;20036;-83
2023/06/18 10:39:07;;;;;;;5.38;4.85;;;26.80;66.70;;;;;;5061935;28;20469;-83
2023/06/18 10:41:34;;;;;;;4.72;4.13;;;26.80;67.00;;;;;;5078336;28;20043;-83
2023/06/18 10:44:00;;;;;;;5.00;4.30;;;26.90;66.50;;;;;;5043555;28;20024;-83
2023/06/18 10:46:26;;;;;;;5.75;4.70;;;26.90;66.30;;;;;;5042563;28;20036;-83
2023/06/18 10:49:15;;;;;;;4.93;4.43;;;26.90;66.70;;;;;;5062312;28;20025;-83
2023/06/18 10:51:51;;;;;;;4.78;4.35;;;26.80;66.70;;;;;;5063834;28;20020;-82
2023/06/18 10:54:22;;;;;;;6.03;4.38;;;26.80;66.50;;;;;;5060834;28;20056;-83
2023/06/18 10:56:58;;;;;;;6.72;4.25;;;26.80;66.00;;;;;;5062358;28;20386;-83
2023/06/18 10:59:46;;;;;;;5.10;4.60;;;26.80;66.50;;;;;;5076706;28;20115;-84
2023/06/18 11:02:13;;;;;;;4.90;4.50;;;26.80;66.80;;;;;;5058082;28;20077;-84
2023/06/18 11:04:42;;;;;;;5.10;4.28;;;26.90;66.90;;;;;;5076115;28;20584;-83
2023/06/18 11:07:20;;;;;;;6.10;4.60;;;26.80;67.00;;;;;;5041624;28;20453;-82
2023/06/18 11:09:50;;;;;;;4.97;4.57;;;26.80;67.60;;;;;;5058644;28;20427;-83
2023/06/18 11:12:33;;;;;;;5.20;4.70;;;26.80;68.20;;;;;;5076034;28;20021;-83
2023/06/18 11:15:17;;;;;;;5.60;5.10;;;26.80;68.20;;;;;;5042509;28;20067;-83
2023/06/18 11:17:51;;;;;;;5.28;4.78;;;26.80;67.20;;;;;;5057960;28;20028;-83
2023/06/18 11:20:22;;;;;;;5.78;4.88;;;26.80;66.70;;;;;;5057367;28;20024;-83
2023/06/18 11:22:55;;;;;;;8.23;5.45;;;26.80;66.90;;;;;;5057874;28;20355;-83
2023/06/18 11:25:21;;;;;;;6.25;4.70;;;26.80;67.10;;;;;;5075461;28;20073;-84
2023/06/18 11:27:50;;;;;;;5.40;4.88;;;26.70;67.40;;;;;;5041152;28;20390;-84
2023/06/18 11:30:18;;;;;;;4.90;4.40;;;26.70;67.40;;;;;;5057541;28;20039;-83
2023/06/18 11:32:44;;;;;;;5.10;4.60;;;26.80;67.70;;;;;;5057601;28;20024;-84
2023/06/18 11:35:14;;;;;;;6.18;4.60;;;26.80;67.90;;;;;;5057538;28;20020;-83
2023/06/18 11:37:45;;;;;;;5.32;4.82;;;26.80;68.20;;;;;;5057128;28;20036;-83
2023/06/18 11:40:11;;;;;;;6.15;5.22;;;26.70;68.50;;;;;;5057288;28;20024;-83
2023/06/18 11:42:47;;;;;;;5.65;5.10;;;26.70;68.20;;;;;;5057558;28;20108;-84
2023/06/18 11:45:13;;;;;;;6.07;5.10;;;26.70;68.40;;;;;;5056858;28;20025;-83
2023/06/18 11:47:49;;;;;;;7.13;5.57;;;26.70;68.40;;;;;;5057296;28;20043;-84
2023/06/18 11:50:17;;;;;;;5.95;5.00;;;26.60;68.30;;;;;;5055570;28;20033;-83
2023/06/18 11:52:44;;;;;;;6.82;5.25;;;26.60;68.30;;;;;;5074946;28;20482;-83
2023/06/18 11:55:10;;;;;;;6.05;5.45;;;26.60;68.40;;;;;;5074848;28;20082;-83
2023/06/18 11:57:36;;;;;;;5.78;5.22;;;26.60;68.50;;;;;;5056829;28;20024;-83
2023/06/18 12:00:12;;;;;;;6.13;5.30;;;26.60;68.60;;;;;;5040280;28;20025;-84
2023/06/18 12:02:39;;;;;;;5.20;4.70;;;26.60;68.20;;;;;;5058595;28;20020;-84
2023/06/18 12:05:06;;;;;;;5.50;4.78;;;26.60;67.90;;;;;;5075212;28;20048;-83
2023/06/18 12:07:32;;;;;;;6.15;4.85;;;26.60;67.60;;;;;;5075455;28;20115;-83
2023/06/18 12:09:59;;;;;;;4.78;4.38;;;26.50;67.40;;;;;;5057302;28;20021;-84
2023/06/18 12:12:50;;;;;;;5.28;4.78;;;26.60;67.50;;;;;;5057309;28;20028;-83
2023/06/18 12:15:22;;;;;;;4.72;4.30;;;26.60;67.50;;;;;;5057196;28;20045;-83
2023/06/18 12:17:50;;;;;;;5.75;4.40;;;26.70;67.60;;;;;;5057796;28;20488;-83
2023/06/18 12:20:19;;;;;;;5.35;4.65;;;26.70;67.50;;;;;;5075236;28;20035;-83
2023/06/18 12:22:46;;;;;;;5.30;4.80;;;26.70;67.50;;;;;;5075941;28;20056;-83
2023/06/18 12:25:12;;;;;;;6.63;4.35;;;26.70;67.50;;;;;;5057552;28;20039;-83
2023/06/18 12:27:41;;;;;;;5.00;4.55;;;26.80;67.50;;;;;;5058146;28;20036;-83
2023/06/18 12:30:09;;;;;;;6.07;5.30;;;26.80;67.40;;;;;;5086488;28;20044;-83
2023/06/18 12:32:36;;;;;;;6.07;5.32;;;26.80;67.00;;;;;;5095410;28;20011;-83
2023/06/18 12:35:15;;;;;;;7.15;5.57;;;26.80;66.40;;;;;;5081465;28;20008;-83
2023/06/18 12:37:46;;;;;;;5.50;4.90;;;26.80;65.40;;;;;;5080717;28;20112;-83
2023/06/18 12:40:33;;;;;;;6.15;5.22;;;26.80;65.00;;;;;;5076415;28;20111;-83
2023/06/18 12:43:01;;;;;;;5.35;4.85;;;26.80;64.90;;;;;;5064856;28;20060;-83
2023/06/18 12:45:29;;;;;;;5.25;4.75;;;26.80;64.70;;;;;;5059077;28;20017;-83
2023/06/18 12:47:58;;;;;;;5.50;4.85;;;26.80;64.40;;;;;;5056827;28;20028;-83
2023/06/18 12:50:24;;;;;;;5.43;4.93;;;26.80;64.30;;;;;;5074170;28;20099;-83